createdAt,value
2024-02-12T00:00:47.765Z,3.00
2024-02-12T00:03:18.456Z,5.00
2024-02-12T00:05:48.384Z,2.00
2024-02-12T00:08:16.547Z,3.00
2024-02-12T00:10:44.211Z,3.25
2024-02-12T00:13:11.514Z,6.60
2024-02-12T00:15:37.982Z,2.00
2024-02-12T00:18:04.618Z,2.00
2024-02-12T00:20:31.741Z,2.00
2024-02-12T00:22:59.894Z,3.00
2024-02-12T00:25:27.363Z,3.00
2024-02-12T00:27:54.293Z,7.80
2024-02-12T00:30:21.376Z,2.20
2024-02-12T00:32:48.333Z,7.75
2024-02-12T00:35:16.911Z,2.25
2024-02-12T00:37:43.687Z,2.50
2024-02-12T00:40:10.986Z,5.50
2024-02-12T00:42:39.487Z,4.00
2024-02-12T00:45:11.882Z,2.00
2024-02-12T00:47:41.107Z,2.00
2024-02-12T00:50:08.930Z,2.00
2024-02-12T00:52:39.462Z,2.00
2024-02-12T00:55:08.144Z,3.00
2024-02-12T00:57:40.553Z,2.00
2024-02-12T01:00:14.085Z,1.00
2024-02-12T01:02:44.270Z,2.20
2024-02-12T01:05:11.538Z,1.00
2024-02-12T01:07:40.554Z,3.00
2024-02-12T01:10:07.358Z,6.00
2024-02-12T01:12:34.023Z,3.00
2024-02-12T01:15:03.263Z,1.20
2024-02-12T01:17:31.486Z,1.25
2024-02-12T01:19:57.970Z,3.40
2024-02-12T01:22:24.523Z,1.80
2024-02-12T01:24:52.256Z,2.20
2024-02-12T01:27:18.792Z,5.50
2024-02-12T01:29:48.609Z,5.00
2024-02-12T01:32:15.151Z,3.00
2024-02-12T01:34:44.932Z,2.20
2024-02-12T01:37:11.559Z,5.00
2024-02-12T01:39:38.099Z,4.00
2024-02-12T01:42:14.039Z,1.60
2024-02-12T01:44:59.277Z,1.00
2024-02-12T01:47:26.070Z,3.00
2024-02-12T01:49:56.669Z,2.50
2024-02-12T01:52:24.394Z,3.00
2024-02-12T01:54:51.889Z,2.60
2024-02-12T01:57:18.872Z,4.50
2024-02-12T01:59:46.524Z,6.00
2024-02-12T02:02:14.420Z,3.00
2024-02-12T02:04:41.073Z,4.40
2024-02-12T02:07:18.053Z,2.00
2024-02-12T02:09:44.475Z,1.60
2024-02-12T02:12:10.895Z,5.00
2024-02-12T02:14:37.378Z,1.00
2024-02-12T02:17:06.313Z,7.60
2024-02-12T02:19:33.913Z,1.67
2024-02-12T02:22:00.345Z,2.00
2024-02-12T02:24:27.097Z,2.00
2024-02-12T02:26:55.721Z,2.00
2024-02-12T02:29:22.744Z,1.00
2024-02-12T02:31:49.188Z,2.00
2024-02-12T02:34:15.803Z,2.40
2024-02-12T02:36:48.951Z,1.00
2024-02-12T02:39:15.580Z,4.80
2024-02-12T02:41:43.970Z,0.60
2024-02-12T02:44:10.499Z,2.00
2024-02-12T02:46:37.435Z,2.20
2024-02-12T02:49:04.806Z,2.00
2024-02-12T02:51:31.350Z,5.00
2024-02-12T02:53:57.842Z,4.50
2024-02-12T02:56:24.426Z,1.00
2024-02-12T02:58:53.798Z,4.00
2024-02-12T03:01:20.424Z,2.50
2024-02-12T03:03:49.654Z,3.00
2024-02-12T03:06:16.196Z,2.00
2024-02-12T03:08:43.772Z,2.00
2024-02-12T03:11:10.235Z,2.25
2024-02-12T03:13:38.995Z,10.00
2024-02-12T03:16:05.646Z,7.00
2024-02-12T03:18:32.150Z,5.80
2024-02-12T03:20:58.588Z,5.25
2024-02-12T03:23:26.086Z,4.75
2024-02-12T03:25:53.684Z,7.00
2024-02-12T03:28:20.176Z,5.50
2024-02-12T03:30:46.665Z,6.00
2024-02-12T03:33:14.353Z,2.00
2024-02-12T03:35:40.833Z,4.00
2024-02-12T03:38:07.494Z,2.50
2024-02-12T03:40:35.122Z,2.00
2024-02-12T03:43:05.816Z,2.00
2024-02-12T03:45:32.675Z,2.00
2024-02-12T03:48:01.944Z,2.00
2024-02-12T03:50:47.394Z,2.20
2024-02-12T03:53:34.147Z,8.00
2024-02-12T03:56:19.217Z,4.50
2024-02-12T03:59:04.171Z,12.40
2024-02-12T04:01:30.629Z,10.50
2024-02-12T04:03:57.124Z,6.00
2024-02-12T04:06:23.970Z,7.00
2024-02-12T04:08:51.014Z,7.75
2024-02-12T04:11:17.757Z,6.20
2024-02-12T04:13:44.860Z,7.80
2024-02-12T04:16:13.235Z,3.00
2024-02-12T04:18:43.112Z,4.00
2024-02-12T04:21:10.595Z,4.00
2024-02-12T04:23:39.936Z,4.00
2024-02-12T04:26:11.833Z,3.20
2024-02-12T04:28:40.949Z,4.00
2024-02-12T04:31:07.619Z,5.00
2024-02-12T04:33:34.240Z,4.60
2024-02-12T04:36:02.531Z,6.00
2024-02-12T04:38:28.999Z,4.00
2024-02-12T04:40:55.419Z,4.00
2024-02-12T04:43:21.881Z,5.00
2024-02-12T04:45:48.309Z,4.00
2024-02-12T04:48:14.825Z,4.75
2024-02-12T04:50:42.152Z,7.00
2024-02-12T04:53:08.791Z,8.00
2024-02-12T04:55:35.235Z,6.00
2024-02-12T04:58:02.274Z,4.75
2024-02-12T05:00:28.853Z,10.60
2024-02-12T05:02:55.271Z,6.20
2024-02-12T05:05:21.733Z,4.20
2024-02-12T05:07:48.553Z,5.00
2024-02-12T05:10:15.136Z,4.40
2024-02-12T05:12:41.591Z,4.00
2024-02-12T05:15:10.707Z,11.60
2024-02-12T05:17:57.484Z,11.00
2024-02-12T05:20:42.698Z,12.75
2024-02-12T05:23:09.747Z,15.00
2024-02-12T05:25:37.106Z,13.40
2024-02-12T05:28:04.354Z,7.00
2024-02-12T05:30:34.096Z,9.00
2024-02-12T05:33:00.700Z,8.25
2024-02-12T05:35:27.739Z,7.20
2024-02-12T05:37:54.315Z,8.00
2024-02-12T05:40:21.658Z,8.00
2024-02-12T05:42:48.044Z,9.40
2024-02-12T05:45:15.778Z,7.50
2024-02-12T05:47:42.423Z,12.00
2024-02-12T05:50:09.017Z,10.50
2024-02-12T05:52:36.088Z,10.50
2024-02-12T05:55:02.537Z,9.60
2024-02-12T05:57:29.010Z,10.40
2024-02-12T05:59:55.418Z,13.60
2024-02-12T06:02:21.946Z,9.00
2024-02-12T06:04:48.370Z,11.50
2024-02-12T06:07:15.079Z,9.00
2024-02-12T06:09:41.642Z,11.40
2024-02-12T06:12:08.966Z,9.00
2024-02-12T06:14:35.554Z,16.80
2024-02-12T06:17:02.217Z,18.40
2024-02-12T06:19:28.654Z,19.00
2024-02-12T06:21:55.907Z,25.25
2024-02-12T06:24:22.721Z,19.20
2024-02-12T06:26:49.194Z,20.00
2024-02-12T06:29:15.796Z,19.50
2024-02-12T06:31:46.562Z,20.75
2024-02-12T06:34:13.290Z,13.25
2024-02-12T06:36:40.023Z,14.40
2024-02-12T06:39:06.583Z,15.00
2024-02-12T06:41:34.230Z,12.00
2024-02-12T06:44:01.017Z,10.40
2024-02-12T06:46:27.825Z,9.20
2024-02-12T06:48:54.472Z,17.50
2024-02-12T06:51:20.946Z,12.60
2024-02-12T06:53:47.513Z,19.00
2024-02-12T06:56:14.057Z,18.00
2024-02-12T06:58:40.501Z,13.40
2024-02-12T07:01:07.059Z,18.50
2024-02-12T07:03:33.637Z,27.80
2024-02-12T07:06:00.626Z,31.40
2024-02-12T07:08:27.254Z,46.60
2024-02-12T07:10:53.871Z,46.00
2024-02-12T07:13:20.376Z,52.00
2024-02-12T07:15:46.865Z,56.00
2024-02-12T07:18:13.391Z,56.33
2024-02-12T07:20:41.329Z,52.80
2024-02-12T07:23:08.076Z,65.00
2024-02-12T07:25:36.158Z,66.75
2024-02-12T07:28:03.080Z,67.60
2024-02-12T07:30:31.318Z,63.50
2024-02-12T07:33:00.973Z,66.00
2024-02-12T07:35:30.536Z,49.20
2024-02-12T07:37:59.414Z,28.80
2024-02-12T07:40:25.926Z,26.50
2024-02-12T07:42:54.446Z,37.00
2024-02-12T07:45:21.135Z,40.75
2024-02-12T07:47:47.701Z,31.50
2024-02-12T07:50:14.512Z,31.40
2024-02-12T07:52:41.774Z,38.20
2024-02-12T07:55:09.546Z,27.00
2024-02-12T07:57:35.979Z,21.80
2024-02-12T08:00:02.554Z,17.80
2024-02-12T08:02:30.425Z,18.50
2024-02-12T08:04:56.890Z,39.25
2024-02-12T08:07:32.119Z,44.00
2024-02-12T08:10:05.160Z,31.50
2024-02-12T08:12:31.846Z,43.75
2024-02-12T08:14:58.277Z,59.40
2024-02-12T08:17:28.467Z,39.00
2024-02-12T08:19:55.828Z,39.00
2024-02-12T08:22:25.514Z,44.50
2024-02-12T08:24:52.611Z,35.80
2024-02-12T08:27:21.383Z,21.25
2024-02-12T08:29:48.975Z,17.50
2024-02-12T08:32:15.553Z,9.60
2024-02-12T08:34:42.177Z,8.40
2024-02-12T08:37:09.763Z,10.00
2024-02-12T08:39:38.022Z,12.00
2024-02-12T08:42:05.100Z,12.60
2024-02-12T08:44:35.747Z,20.80
2024-02-12T08:47:02.558Z,19.40
2024-02-12T08:49:29.097Z,15.50
2024-02-12T08:51:56.237Z,11.50
2024-02-12T08:54:23.715Z,5.00
2024-02-12T08:56:51.403Z,7.50
2024-02-12T08:59:20.395Z,8.40
2024-02-12T09:01:47.129Z,11.00
2024-02-12T09:04:13.590Z,13.00
2024-02-12T09:06:40.293Z,14.00
2024-02-12T09:09:07.558Z,11.40
2024-02-12T09:11:34.076Z,18.40
2024-02-12T09:14:01.892Z,14.75
2024-02-12T09:16:28.324Z,10.00
2024-02-12T09:18:55.623Z,9.00
2024-02-12T09:21:22.180Z,11.40
2024-02-12T09:23:48.614Z,3.00
2024-02-12T09:26:16.081Z,6.75
2024-02-12T09:28:43.118Z,11.00
2024-02-12T09:31:09.774Z,8.40
2024-02-12T09:33:36.556Z,5.00
2024-02-12T09:36:03.387Z,7.00
2024-02-12T09:38:29.969Z,8.60
2024-02-12T09:40:58.489Z,7.20
2024-02-12T09:43:25.798Z,7.50
2024-02-12T09:45:55.883Z,7.00
2024-02-12T09:48:22.718Z,11.25
2024-02-12T09:50:52.371Z,10.40
2024-02-12T09:53:22.343Z,10.00
2024-02-12T09:55:49.060Z,14.60
2024-02-12T09:58:22.031Z,7.75
2024-02-12T10:00:49.249Z,10.40
2024-02-12T10:03:15.927Z,7.25
2024-02-12T10:05:44.323Z,6.25
2024-02-12T10:38:57.039Z,4.00
2024-02-12T10:41:30.344Z,8.00
2024-02-12T10:43:57.769Z,2.00
2024-02-12T10:46:29.114Z,5.00
2024-02-12T10:48:55.719Z,11.00
2024-02-12T10:51:22.506Z,7.40
2024-02-12T10:53:50.640Z,14.00
2024-02-12T10:56:17.931Z,17.00
2024-02-12T10:58:45.366Z,4.33
2024-02-12T11:01:15.445Z,14.75
2024-02-12T11:03:49.087Z,26.25
2024-02-12T11:06:17.054Z,46.00
2024-02-12T11:08:44.402Z,7.00
2024-02-12T11:11:13.783Z,10.00
2024-02-12T11:13:41.282Z,14.80
2024-02-12T11:16:13.620Z,12.75
2024-02-12T11:18:40.333Z,11.00
2024-02-12T11:21:09.583Z,11.40
2024-02-12T11:23:36.658Z,13.25
2024-02-12T11:26:07.217Z,9.00
2024-02-12T11:28:33.769Z,39.00
2024-02-12T11:31:00.329Z,25.60
2024-02-12T11:33:27.839Z,17.60
2024-02-12T11:36:07.261Z,19.40
2024-02-12T11:38:36.389Z,31.50
2024-02-12T11:41:02.995Z,14.67
2024-02-12T11:43:33.198Z,5.60
2024-02-12T11:46:00.640Z,13.20
2024-02-12T11:48:29.317Z,39.20
2024-02-12T11:50:56.892Z,11.00
2024-02-12T11:53:23.468Z,36.60
2024-02-12T11:55:50.018Z,8.00
2024-02-12T11:58:17.104Z,15.00
2024-02-12T12:00:43.801Z,26.60
2024-02-12T12:03:10.331Z,13.40
2024-02-12T12:05:39.866Z,9.60
2024-02-12T12:08:07.455Z,15.20
2024-02-12T12:10:35.353Z,18.50
2024-02-12T12:13:02.607Z,18.60
2024-02-12T12:15:30.271Z,16.75
2024-02-12T12:18:00.006Z,13.00
2024-02-12T12:20:30.556Z,14.00
2024-02-12T12:23:00.102Z,11.00
2024-02-12T12:25:27.289Z,26.00
2024-02-12T12:27:53.723Z,22.00
2024-02-12T12:30:20.295Z,18.00
2024-02-12T12:32:50.449Z,10.40
2024-02-12T12:35:17.570Z,14.75
2024-02-12T12:37:46.489Z,13.50
2024-02-12T12:40:19.930Z,19.40
2024-02-12T12:42:48.681Z,13.00
2024-02-12T12:45:16.294Z,7.80
2024-02-12T12:47:43.265Z,10.40
2024-02-12T12:50:10.633Z,12.80
2024-02-12T12:52:37.590Z,7.40
2024-02-12T12:55:09.576Z,11.00
2024-02-12T12:57:36.839Z,33.60
2024-02-12T13:00:06.281Z,38.50
2024-02-12T13:02:35.820Z,40.20
2024-02-12T13:05:05.953Z,34.50
2024-02-12T13:07:35.986Z,28.50
2024-02-12T13:10:02.410Z,28.00
2024-02-12T13:12:33.716Z,10.60
2024-02-12T13:15:01.848Z,7.40
2024-02-12T13:17:30.473Z,11.00
2024-02-12T13:19:57.109Z,27.00
2024-02-12T13:22:24.250Z,36.60
2024-02-12T13:24:50.674Z,27.00
2024-02-12T13:27:17.556Z,8.00
2024-02-12T13:29:44.284Z,15.40
2024-02-12T13:32:10.824Z,37.25
2024-02-12T13:34:37.540Z,44.00
2024-02-12T13:37:09.017Z,26.40
2024-02-12T13:39:37.258Z,14.00
2024-02-12T13:42:04.867Z,38.75
2024-02-12T13:44:33.471Z,10.00
2024-02-12T13:47:00.863Z,23.00
2024-02-12T13:49:27.397Z,24.00
2024-02-12T13:51:53.861Z,21.80
2024-02-12T13:54:20.286Z,25.50
2024-02-12T13:56:47.073Z,14.40
2024-02-12T13:59:17.928Z,21.00
2024-02-12T14:01:53.548Z,25.00
2024-02-12T14:04:25.077Z,36.40
2024-02-12T14:06:52.598Z,27.25
2024-02-12T14:09:25.906Z,8.00
2024-02-12T14:11:52.646Z,13.50
2024-02-12T14:14:20.225Z,10.40
2024-02-12T14:16:47.493Z,7.00
2024-02-12T14:19:14.451Z,10.00
2024-02-12T14:21:41.231Z,4.00
2024-02-12T14:24:09.018Z,13.75
2024-02-12T14:26:38.611Z,9.20
2024-02-12T14:29:05.479Z,5.33
2024-02-12T14:31:33.986Z,19.80
2024-02-12T14:34:20.482Z,8.00
2024-02-12T14:36:46.943Z,10.00
2024-02-12T14:39:15.280Z,5.80
2024-02-12T14:41:44.355Z,22.50
2024-02-12T14:44:10.879Z,7.00
2024-02-12T14:46:37.426Z,12.50
2024-02-12T14:49:04.949Z,20.50
2024-02-12T14:51:31.425Z,9.75
2024-02-12T14:53:57.855Z,12.20
2024-02-12T14:56:24.258Z,23.50
2024-02-12T14:58:51.061Z,12.00
2024-02-12T15:01:19.909Z,19.00
2024-02-12T15:03:46.487Z,46.40
2024-02-12T15:06:13.356Z,47.50
2024-02-12T15:08:40.166Z,42.50
2024-02-12T15:11:09.233Z,46.50
2024-02-12T15:13:35.880Z,29.50
2024-02-12T15:16:02.326Z,28.00
2024-02-12T15:18:28.829Z,16.00
2024-02-12T15:20:55.374Z,23.60
2024-02-12T15:23:24.620Z,35.00
2024-02-12T15:25:51.214Z,20.20
2024-02-12T15:28:18.095Z,26.20
2024-02-12T15:30:46.510Z,28.75
2024-02-12T15:33:14.062Z,23.50
2024-02-12T15:35:40.621Z,20.80
2024-02-12T15:38:12.098Z,16.00
2024-02-12T15:40:38.737Z,13.00
2024-02-12T15:43:05.225Z,16.40
2024-02-12T15:45:35.212Z,20.00
2024-02-12T15:48:02.331Z,19.20
2024-02-12T15:50:29.648Z,15.00
2024-02-12T15:52:56.994Z,17.33
2024-02-12T15:55:24.556Z,25.00
2024-02-12T15:57:51.576Z,46.00
2024-02-12T16:00:23.656Z,31.00
2024-02-12T16:02:50.615Z,25.80
2024-02-12T16:05:36.196Z,12.00
2024-02-12T16:08:02.924Z,39.25
2024-02-12T16:10:29.384Z,25.00
2024-02-12T16:12:55.791Z,22.80
2024-02-12T16:15:22.308Z,38.20
2024-02-12T16:17:48.961Z,37.25
2024-02-12T16:20:15.675Z,39.50
2024-02-12T16:22:42.165Z,15.25
2024-02-12T16:25:13.902Z,15.60
2024-02-12T16:27:40.885Z,15.00
2024-02-12T16:30:07.791Z,37.25
2024-02-12T16:32:34.289Z,30.60
2024-02-12T16:35:00.876Z,16.60
2024-02-12T16:37:31.449Z,12.00
2024-02-12T16:39:57.989Z,18.25
2024-02-12T16:42:24.466Z,21.00
2024-02-12T16:44:51.494Z,22.00
2024-02-12T16:47:18.993Z,33.80
2024-02-12T16:49:45.768Z,16.20
2024-02-12T16:52:13.138Z,31.00
2024-02-12T16:54:39.928Z,16.00
2024-02-12T16:57:08.535Z,26.00
2024-02-12T16:59:35.002Z,37.50
2024-02-12T17:02:02.708Z,42.00
2024-02-12T17:04:29.826Z,49.60
2024-02-12T17:06:56.400Z,26.25
2024-02-12T17:09:22.957Z,39.80
2024-02-12T17:11:49.441Z,45.50
2024-02-12T17:14:15.961Z,28.00
2024-02-12T17:16:45.524Z,33.00
2024-02-12T17:19:12.969Z,31.20
2024-02-12T17:21:39.417Z,29.60
2024-02-12T17:24:06.784Z,28.00
2024-02-12T17:26:34.480Z,26.20
2024-02-12T17:29:01.203Z,24.00
2024-02-12T17:31:28.174Z,15.00
2024-02-12T17:33:55.721Z,15.00
2024-02-12T17:36:22.302Z,27.67
2024-02-12T17:38:49.676Z,35.50
2024-02-12T17:41:16.579Z,29.20
2024-02-12T17:43:45.756Z,30.25
2024-02-12T17:46:14.745Z,30.60
2024-02-12T17:48:42.454Z,41.50
2024-02-12T17:51:09.068Z,29.20
2024-02-12T17:53:35.650Z,24.60
2024-02-12T17:56:03.713Z,23.50
2024-02-12T17:58:30.281Z,33.00
2024-02-12T18:00:56.778Z,23.00
2024-02-12T18:03:23.355Z,24.75
2024-02-12T18:05:49.949Z,33.40
2024-02-12T18:08:16.467Z,41.60
2024-02-12T18:10:43.019Z,27.00
2024-02-12T18:13:09.700Z,27.50
2024-02-12T18:15:36.216Z,27.00
2024-02-12T18:18:03.198Z,28.50
2024-02-12T18:20:29.847Z,25.00
2024-02-12T18:22:56.309Z,28.80
2024-02-12T18:25:22.789Z,14.20
2024-02-12T18:27:49.887Z,18.00
2024-02-12T18:30:17.067Z,19.80
2024-02-12T18:32:44.159Z,15.40
2024-02-12T18:35:13.766Z,12.40
2024-02-12T18:37:41.189Z,16.00
2024-02-12T18:40:08.253Z,18.00
2024-02-12T18:42:34.963Z,16.80
2024-02-12T18:45:02.482Z,16.40
2024-02-12T18:47:32.130Z,17.00
2024-02-12T18:49:59.350Z,13.67
2024-02-12T18:52:25.833Z,15.00
2024-02-12T18:54:52.300Z,13.00
2024-02-12T18:57:18.824Z,27.00
2024-02-12T18:59:45.626Z,49.80
2024-02-12T19:02:12.345Z,16.50
2024-02-12T19:04:38.908Z,9.00
2024-02-12T19:07:07.188Z,17.00
2024-02-12T19:09:33.748Z,14.00
2024-02-12T19:12:00.230Z,18.40
2024-02-12T19:14:27.884Z,13.80
2024-02-12T19:16:54.445Z,15.00
2024-02-12T19:19:21.034Z,19.25
2024-02-12T19:21:47.575Z,15.25
2024-02-12T19:24:14.057Z,15.25
2024-02-12T19:26:40.577Z,12.60
2024-02-12T19:29:07.167Z,15.50
2024-02-12T19:31:35.401Z,14.20
2024-02-12T19:34:02.138Z,19.00
2024-02-12T19:36:28.566Z,12.60
2024-02-12T19:38:56.086Z,15.60
2024-02-12T19:41:26.243Z,13.00
2024-02-12T19:43:52.787Z,15.00
2024-02-12T19:46:19.385Z,13.80
2024-02-12T19:48:47.415Z,19.00
2024-02-12T19:51:13.920Z,18.40
2024-02-12T19:53:40.506Z,18.00
2024-02-12T19:56:07.700Z,12.25
2024-02-12T19:58:35.484Z,16.00
2024-02-12T20:01:05.042Z,15.00
2024-02-12T20:03:31.715Z,15.50
2024-02-12T20:05:58.347Z,13.00
2024-02-12T20:08:25.422Z,9.00
2024-02-12T20:10:52.695Z,12.67
2024-02-12T20:13:19.244Z,12.00
2024-02-12T20:15:45.808Z,7.00
2024-02-12T20:18:12.435Z,13.00
2024-02-12T20:20:39.862Z,8.20
2024-02-12T20:23:07.838Z,9.60
2024-02-12T20:25:34.694Z,10.00
2024-02-12T20:28:04.424Z,10.00
2024-02-12T20:30:32.652Z,9.60
2024-02-12T20:32:59.399Z,15.00
2024-02-12T20:35:26.240Z,11.00
2024-02-12T20:37:53.791Z,12.50
2024-02-12T20:40:20.286Z,16.00
2024-02-12T20:42:46.889Z,21.00
2024-02-12T20:45:17.841Z,19.80
2024-02-12T20:47:44.351Z,12.25
2024-02-12T20:50:12.473Z,7.00
2024-02-12T20:52:39.226Z,8.50
2024-02-12T20:55:06.009Z,7.00
2024-02-12T20:57:32.414Z,6.50
2024-02-12T20:59:58.897Z,9.75
2024-02-12T21:02:25.636Z,9.40
2024-02-12T21:04:52.226Z,15.50
2024-02-12T21:07:18.756Z,13.00
2024-02-12T21:09:48.611Z,15.00
2024-02-12T21:12:15.728Z,10.00
2024-02-12T21:14:43.018Z,9.00
2024-02-12T21:17:09.658Z,10.00
2024-02-12T21:19:36.387Z,12.50
2024-02-12T21:22:03.249Z,10.00
2024-02-12T21:24:29.720Z,9.50
2024-02-12T21:26:56.175Z,11.50
2024-02-12T21:29:22.771Z,12.00
2024-02-12T21:31:49.325Z,9.67
2024-02-12T21:34:17.765Z,9.40
2024-02-12T21:36:45.122Z,9.00
2024-02-12T21:39:16.214Z,14.20
2024-02-12T21:41:51.973Z,13.00
2024-02-12T21:44:19.295Z,13.00
2024-02-12T21:46:46.927Z,9.40
2024-02-12T21:49:13.747Z,13.00
2024-02-12T21:51:40.317Z,14.20
2024-02-12T21:54:07.076Z,7.00
2024-02-12T21:56:33.702Z,16.80
2024-02-12T21:59:00.645Z,10.40
2024-02-12T22:01:27.739Z,12.00
2024-02-12T22:03:55.159Z,11.00
2024-02-12T22:06:21.729Z,9.60
2024-02-12T22:08:49.186Z,10.60
2024-02-12T22:11:15.799Z,15.00
2024-02-12T22:13:42.648Z,6.60
2024-02-12T22:16:09.914Z,15.00
2024-02-12T22:18:36.454Z,9.00
2024-02-12T22:21:03.030Z,9.00
2024-02-12T22:23:29.599Z,11.80
2024-02-12T22:25:56.529Z,11.50
2024-02-12T22:28:22.995Z,9.00
2024-02-12T22:30:49.621Z,14.50
2024-02-12T22:33:17.030Z,14.20
2024-02-12T22:35:43.880Z,9.75
2024-02-12T22:38:10.434Z,8.60
2024-02-12T22:40:37.533Z,10.00
2024-02-12T22:43:04.067Z,9.00
2024-02-12T22:45:30.465Z,8.00
2024-02-12T22:47:57.668Z,8.00
2024-02-12T22:50:24.675Z,12.20
2024-02-12T22:52:51.112Z,13.00
2024-02-12T22:55:17.551Z,14.25
2024-02-12T22:57:44.473Z,12.60
2024-02-12T23:00:15.614Z,9.00
2024-02-12T23:02:42.280Z,9.75
2024-02-12T23:05:09.145Z,10.00
2024-02-12T23:07:35.692Z,10.50
2024-02-12T23:10:02.154Z,9.40
2024-02-12T23:12:29.029Z,10.00
2024-02-12T23:14:55.767Z,8.00
2024-02-12T23:17:22.268Z,11.00
2024-02-12T23:19:48.859Z,11.00
2024-02-12T23:22:16.360Z,10.00
2024-02-12T23:24:45.281Z,9.20
2024-02-12T23:27:15.889Z,6.80
2024-02-12T23:29:43.604Z,12.00
2024-02-12T23:32:10.095Z,9.00
2024-02-12T23:34:36.545Z,6.00
2024-02-12T23:37:03.196Z,9.00
2024-02-12T23:39:30.343Z,7.00
2024-02-12T23:44:42.716Z,18.50
2024-02-12T23:47:09.308Z,9.00
2024-02-12T23:49:35.810Z,6.00
2024-02-12T23:52:02.343Z,9.00
2024-02-12T23:54:29.116Z,8.20
2024-02-12T23:56:55.613Z,7.00
2024-02-12T23:59:22.202Z,6.60
